CYPY

Fort Chipewyan Airport

Fort Chipewyan, Alberta, Canada
METAR CYPY 191700Z AUTO 33010KT 280V350 9SM FEW023 16/11 A3016 RMK SLP223
Observed Flight Rules
Aug-19 @ 17:00 UTC (12 minutes ago) Visual Flight Rules
Wind Visibility Clouds
330° at 10 knots 9 miles
  • Few at 2,300' AGL
Temperatures Readings
Current 16°C / 61°F
Dewpoint 11°C / 52°F
Humidity 72%
Altimeter 30.16" Hg
Pressure 1022.3 hPa
Elevation 232
METAR CYPY 191700Z AUTO 33010KT 280V350 9SM FEW023 16/11 A3016 RMK SLP223
Observed Flight Rules
Aug-19 @ 17:00 UTC
(12 minutes ago)
VFR
Wind Visibility
330° at 10 knots 9 miles
Clouds
  • Few at 2,300' AGL
Temperature Dewpoint
16°C / 61°F 11°C / 52°F
Humidity Altimeter Pressure
72% 30.16" Hg 1022.3 hPa